Time;durP1;ratioP1;P1;durP2;ratioP2;P2;SDS_P1;SDS_P2;PMS_P1;PMS_P2;Temp;Humidity;BMP_temperature;BMP_pressure;BME280_temperature;BME280_humidity;BME280_pressure;Samples;Min_cycle;Max_cycle;Signal;HPM_P1;HPM_P2
2023/07/12 00:00:46;;;;;;;0.00;0.00;;;19.30;76.70;;;;;;4963346;28;20122;-71
2023/07/12 00:03:12;;;;;;;0.00;0.00;;;19.30;76.60;;;;;;4953544;28;20043;-71
2023/07/12 00:05:38;;;;;;;0.00;0.00;;;19.30;76.80;;;;;;4971034;28;20070;-71
2023/07/12 00:08:05;;;;;;;0.00;0.00;;;19.20;76.80;;;;;;4964378;28;20575;-71
2023/07/12 00:10:34;;;;;;;0.00;0.00;;;19.20;76.70;;;;;;4982240;28;20046;-71
2023/07/12 00:13:00;;;;;;;0.00;0.00;;;19.20;76.70;;;;;;4959626;28;20518;-71
2023/07/12 00:15:32;;;;;;;0.00;0.00;;;19.10;76.70;;;;;;4974238;28;20051;-71
2023/07/12 00:17:58;;;;;;;0.00;0.00;;;19.20;76.90;;;;;;4973111;28;20086;-71
2023/07/12 00:20:33;;;;;;;0.10;0.10;;;19.20;76.70;;;;;;4973832;28;20120;-71
2023/07/12 00:22:59;;;;;;;0.00;0.00;;;19.20;76.90;;;;;;4971994;28;20175;-71
2023/07/12 00:25:28;;;;;;;0.00;0.00;;;19.20;77.20;;;;;;4972115;28;20051;-71
2023/07/12 00:27:54;;;;;;;0.00;0.00;;;19.20;77.30;;;;;;4972122;28;20054;-71
2023/07/12 00:30:34;;;;;;;0.00;0.00;;;19.20;77.40;;;;;;4972477;28;20101;-71
2023/07/12 00:33:03;;;;;;;0.00;0.00;;;19.30;77.70;;;;;;4971493;28;20057;-71
2023/07/12 00:35:31;;;;;;;0.10;0.10;;;19.40;78.30;;;;;;4963668;28;20046;-70
2023/07/12 00:37:59;;;;;;;0.00;0.00;;;19.30;78.40;;;;;;4974514;28;20140;-71
2023/07/12 00:40:53;;;;;;;0.00;0.00;;;19.30;77.90;;;;;;4983828;28;20045;-71
2023/07/12 00:43:25;;;;;;;0.00;0.00;;;19.20;77.90;;;;;;4967477;28;20042;-71
2023/07/12 00:45:52;;;;;;;0.00;0.00;;;19.20;78.10;;;;;;4976202;28;20046;-71
2023/07/12 00:48:19;;;;;;;0.00;0.00;;;19.30;78.90;;;;;;4957310;28;20093;-71
2023/07/12 00:50:49;;;;;;;0.00;0.00;;;19.20;78.90;;;;;;4973190;28;20074;-71
2023/07/12 00:53:17;;;;;;;0.00;0.00;;;19.10;79.40;;;;;;4954985;28;20834;-71
2023/07/12 00:56:05;;;;;;;0.10;0.10;;;19.00;78.70;;;;;;4955545;28;20499;-71
2023/07/12 00:58:43;;;;;;;2.80;0.75;;;19.00;79.30;;;;;;4976193;28;20035;-70
2023/07/12 01:01:10;;;;;;;0.17;0.17;;;19.00;79.80;;;;;;4972951;28;20038;-70
2023/07/12 01:03:40;;;;;;;0.00;0.00;;;18.90;80.10;;;;;;4971546;28;20050;-70
2023/07/12 01:06:09;;;;;;;0.00;0.00;;;18.80;80.30;;;;;;4973446;28;20058;-70
2023/07/12 01:08:35;;;;;;;0.00;0.00;;;18.80;80.40;;;;;;4953522;28;20117;-71
2023/07/12 01:11:03;;;;;;;0.03;0.03;;;18.80;80.20;;;;;;4973592;28;20542;-71
2023/07/12 01:13:30;;;;;;;0.00;0.00;;;18.80;79.90;;;;;;4972017;28;20049;-71
2023/07/12 01:15:59;;;;;;;0.00;0.00;;;18.80;80.00;;;;;;4971963;28;20411;-71
2023/07/12 01:18:25;;;;;;;0.00;0.00;;;18.80;79.50;;;;;;4971593;28;20038;-71
2023/07/12 01:21:04;;;;;;;0.00;0.00;;;18.80;79.70;;;;;;4975536;28;20158;-71
2023/07/12 01:23:30;;;;;;;0.00;0.00;;;18.80;80.00;;;;;;4967061;28;20059;-71
2023/07/12 01:26:20;;;;;;;0.30;0.30;;;18.70;80.10;;;;;;4973146;28;20043;-71
2023/07/12 01:28:53;;;;;;;0.00;0.00;;;18.60;80.40;;;;;;4947706;28;20070;-71
2023/07/12 01:31:19;;;;;;;0.15;0.15;;;18.60;80.50;;;;;;4974188;28;20059;-70
2023/07/12 01:33:44;;;;;;;0.00;0.00;;;18.60;80.20;;;;;;4971879;28;20038;-71
2023/07/12 01:36:10;;;;;;;0.00;0.00;;;18.60;80.40;;;;;;4958227;28;20092;-71
2023/07/12 01:38:36;;;;;;;1.27;1.17;;;18.60;80.50;;;;;;4982423;28;20043;-70
2023/07/12 01:41:01;;;;;;;0.00;0.00;;;18.60;80.60;;;;;;4954042;28;20057;-70
2023/07/12 01:43:27;;;;;;;0.30;0.28;;;18.60;80.90;;;;;;4970899;28;20125;-71
2023/07/12 01:45:53;;;;;;;0.00;0.00;;;18.60;81.30;;;;;;4955447;28;20766;-70
2023/07/12 01:48:19;;;;;;;0.20;0.20;;;18.50;81.30;;;;;;4958483;28;20065;-70
2023/07/12 01:50:44;;;;;;;0.00;0.00;;;18.50;80.70;;;;;;4971693;28;20042;-71
2023/07/12 01:53:10;;;;;;;0.55;0.55;;;18.50;80.80;;;;;;4971623;28;20078;-70
2023/07/12 01:55:36;;;;;;;0.10;0.10;;;18.50;81.10;;;;;;4985020;28;20054;-71
2023/07/12 01:58:01;;;;;;;0.00;0.00;;;18.50;81.40;;;;;;4975156;28;20066;-71
2023/07/12 02:00:28;;;;;;;0.10;0.10;;;18.50;81.00;;;;;;4956070;28;20050;-71
2023/07/12 02:02:54;;;;;;;0.00;0.00;;;18.50;81.40;;;;;;4971996;28;20491;-71
2023/07/12 02:05:21;;;;;;;0.00;0.00;;;18.50;81.80;;;;;;4971467;28;20047;-71
2023/07/12 02:07:48;;;;;;;0.00;0.00;;;18.50;81.50;;;;;;4982285;28;20553;-71
2023/07/12 02:10:19;;;;;;;0.00;0.00;;;18.50;82.00;;;;;;4990191;28;20072;-71
2023/07/12 02:12:45;;;;;;;0.00;0.00;;;18.50;81.90;;;;;;4953419;28;20109;-70
2023/07/12 02:15:12;;;;;;;0.00;0.00;;;18.50;81.50;;;;;;4973506;28;20125;-70
2023/07/12 02:17:38;;;;;;;0.10;0.10;;;18.50;81.50;;;;;;4963774;28;20046;-70
2023/07/12 02:20:04;;;;;;;0.00;0.00;;;18.50;81.90;;;;;;4973809;28;20051;-70
2023/07/12 02:22:32;;;;;;;0.00;0.00;;;18.50;82.20;;;;;;4969639;28;20059;-70
2023/07/12 02:24:58;;;;;;;0.88;0.40;;;18.50;82.40;;;;;;4970109;28;20565;-70
2023/07/12 02:27:24;;;;;;;0.00;0.00;;;18.50;82.60;;;;;;4971071;28;20129;-70
2023/07/12 02:29:49;;;;;;;0.00;0.00;;;18.60;82.60;;;;;;4979623;28;20056;-70
2023/07/12 02:32:15;;;;;;;0.63;0.63;;;18.60;82.80;;;;;;4973036;28;20490;-71
2023/07/12 02:34:40;;;;;;;0.00;0.00;;;18.50;82.90;;;;;;4984855;28;20115;-71
2023/07/12 02:37:06;;;;;;;0.00;0.00;;;18.50;83.00;;;;;;4975186;28;20050;-71
2023/07/12 02:39:32;;;;;;;0.00;0.00;;;18.50;82.90;;;;;;4976565;28;20058;-70
2023/07/12 02:41:57;;;;;;;0.00;0.00;;;18.50;83.50;;;;;;4987723;28;20442;-70
2023/07/12 02:44:23;;;;;;;0.00;0.00;;;18.50;83.00;;;;;;4970284;28;20057;-70
2023/07/12 02:46:49;;;;;;;0.00;0.00;;;18.50;82.80;;;;;;4969777;28;20042;-70
2023/07/12 02:49:14;;;;;;;0.10;0.10;;;18.50;83.20;;;;;;4970391;28;20055;-70
2023/07/12 02:51:40;;;;;;;0.00;0.00;;;18.60;83.00;;;;;;4982799;28;20052;-70
2023/07/12 02:54:05;;;;;;;0.00;0.00;;;18.60;83.40;;;;;;4973024;28;20543;-70
2023/07/12 02:56:31;;;;;;;0.00;0.00;;;18.50;83.50;;;;;;4971760;28;20400;-70
2023/07/12 02:58:57;;;;;;;0.00;0.00;;;18.60;83.30;;;;;;4974363;28;20043;-71
2023/07/12 03:01:22;;;;;;;0.00;0.00;;;18.50;82.70;;;;;;4979134;28;20065;-70
2023/07/12 03:03:48;;;;;;;0.00;0.00;;;18.50;82.80;;;;;;4969584;28;20411;-70
2023/07/12 03:06:14;;;;;;;0.00;0.00;;;18.50;83.10;;;;;;4970255;28;20154;-71
2023/07/12 03:08:39;;;;;;;0.00;0.00;;;18.50;83.80;;;;;;4952661;28;20050;-71
2023/07/12 03:11:07;;;;;;;0.00;0.00;;;18.50;83.80;;;;;;4952283;28;20423;-70
2023/07/12 03:13:33;;;;;;;0.47;0.47;;;18.50;83.60;;;;;;4981923;28;20520;-70
2023/07/12 03:15:59;;;;;;;0.00;0.00;;;18.50;83.50;;;;;;4963560;28;20059;-70
2023/07/12 03:18:25;;;;;;;0.00;0.00;;;18.50;83.80;;;;;;4989840;28;20050;-70
2023/07/12 03:20:50;;;;;;;0.00;0.00;;;18.50;83.90;;;;;;4979671;28;20499;-70
2023/07/12 03:23:17;;;;;;;0.00;0.00;;;18.50;83.20;;;;;;4969699;28;20047;-71
2023/07/12 03:25:46;;;;;;;0.00;0.00;;;18.50;83.70;;;;;;4969705;28;20061;-70
2023/07/12 03:28:11;;;;;;;0.00;0.00;;;18.50;84.30;;;;;;4969278;28;20471;-71
2023/07/12 03:30:37;;;;;;;0.00;0.00;;;18.50;84.00;;;;;;4970954;28;20157;-70
2023/07/12 03:33:03;;;;;;;0.55;0.55;;;18.50;83.70;;;;;;4969715;28;20034;-70
2023/07/12 03:35:28;;;;;;;0.00;0.00;;;18.50;84.30;;;;;;4969818;28;20077;-70
2023/07/12 03:37:54;;;;;;;0.00;0.00;;;18.50;83.90;;;;;;4977516;28;20047;-70
2023/07/12 03:40:19;;;;;;;0.00;0.00;;;18.50;84.50;;;;;;4976849;28;20122;-70
2023/07/12 03:42:45;;;;;;;0.00;0.00;;;18.40;85.00;;;;;;4969486;28;20058;-70
2023/07/12 03:45:11;;;;;;;0.00;0.00;;;18.40;84.30;;;;;;4971752;28;20038;-70
2023/07/12 03:47:37;;;;;;;0.00;0.00;;;18.40;84.20;;;;;;4971597;28;20054;-70
2023/07/12 03:50:08;;;;;;;0.00;0.00;;;18.40;84.60;;;;;;4973320;28;20404;-70
2023/07/12 03:52:34;;;;;;;0.00;0.00;;;18.40;84.80;;;;;;4956481;28;20047;-70
2023/07/12 03:55:03;;;;;;;0.00;0.00;;;18.40;84.70;;;;;;4973515;28;20053;-70
2023/07/12 03:57:41;;;;;;;0.00;0.00;;;18.40;85.10;;;;;;4963802;28;20043;-70
2023/07/12 04:00:39;;;;;;;0.00;0.00;;;18.40;84.50;;;;;;4980867;28;20089;-70
2023/07/12 04:03:23;;;;;;;0.00;0.00;;;18.30;84.40;;;;;;4947202;28;20068;-70
2023/07/12 04:05:51;;;;;;;0.00;0.00;;;18.30;83.90;;;;;;4973066;28;20047;-70
2023/07/12 04:08:18;;;;;;;0.32;0.32;;;18.30;84.30;;;;;;4973020;28;20197;-70
2023/07/12 04:10:50;;;;;;;0.00;0.00;;;18.30;84.50;;;;;;4972835;28;20051;-70
2023/07/12 04:13:23;;;;;;;0.47;0.47;;;18.30;84.40;;;;;;4987240;28;20043;-70
2023/07/12 04:15:59;;;;;;;0.00;0.00;;;18.30;83.90;;;;;;4967833;28;20059;-70
2023/07/12 04:18:25;;;;;;;0.00;0.00;;;18.20;84.70;;;;;;4970756;28;20051;-71
2023/07/12 04:20:55;;;;;;;0.20;0.20;;;18.10;84.60;;;;;;4973017;28;20133;-71
2023/07/12 04:23:21;;;;;;;3.80;0.60;;;18.20;84.50;;;;;;4984657;28;20057;-71
2023/07/12 04:25:47;;;;;;;0.00;0.00;;;18.10;84.60;;;;;;4977970;28;20049;-70
2023/07/12 04:28:13;;;;;;;0.00;0.00;;;18.20;84.60;;;;;;4978082;28;20050;-70
2023/07/12 04:30:39;;;;;;;0.00;0.00;;;18.20;84.30;;;;;;4965084;28;20419;-70
2023/07/12 04:33:05;;;;;;;0.00;0.00;;;18.20;84.40;;;;;;4976024;28;20058;-70
2023/07/12 04:35:31;;;;;;;0.20;0.20;;;18.20;84.50;;;;;;4955211;28;20066;-71
2023/07/12 04:37:57;;;;;;;1.45;0.45;;;18.20;85.00;;;;;;4973231;28;20039;-69
2023/07/12 04:40:22;;;;;;;0.00;0.00;;;18.20;84.70;;;;;;4976158;28;20042;-70
2023/07/12 04:42:48;;;;;;;0.08;0.08;;;18.30;84.60;;;;;;4972445;28;20054;-71
2023/07/12 04:45:13;;;;;;;0.00;0.00;;;18.30;84.90;;;;;;4972734;28;20415;-70
2023/07/12 04:47:40;;;;;;;0.40;0.40;;;18.40;85.00;;;;;;4959275;28;20050;-70
2023/07/12 04:50:11;;;;;;;0.55;0.55;;;18.30;84.80;;;;;;4972096;28;20066;-68
2023/07/12 04:52:37;;;;;;;0.27;0.27;;;18.30;84.80;;;;;;4972452;28;20049;-69
2023/07/12 04:55:04;;;;;;;0.00;0.00;;;18.40;84.40;;;;;;4974191;28;20043;-71
2023/07/12 04:57:31;;;;;;;0.00;0.00;;;18.40;84.70;;;;;;4978845;28;20037;-70
2023/07/12 04:59:57;;;;;;;0.30;0.30;;;18.30;84.40;;;;;;4970040;28;20042;-70
2023/07/12 05:02:22;;;;;;;0.00;0.00;;;18.30;84.70;;;;;;4971265;28;20039;-70
2023/07/12 05:04:48;;;;;;;0.00;0.00;;;18.30;84.60;;;;;;4953976;28;20522;-70
2023/07/12 05:07:14;;;;;;;0.95;0.95;;;18.30;84.40;;;;;;4973125;28;20043;-73
2023/07/12 05:09:39;;;;;;;0.00;0.00;;;18.30;84.30;;;;;;4974524;28;20043;-72
2023/07/12 05:12:05;;;;;;;0.10;0.10;;;18.30;84.30;;;;;;4971860;28;20126;-70
2023/07/12 05:14:31;;;;;;;0.00;0.00;;;18.30;84.30;;;;;;4971728;28;20551;-73
2023/07/12 05:16:57;;;;;;;0.00;0.00;;;18.40;84.50;;;;;;4962364;28;20117;-72
2023/07/12 05:19:22;;;;;;;0.10;0.10;;;18.30;84.50;;;;;;4977086;28;20038;-73
2023/07/12 05:21:48;;;;;;;0.10;0.10;;;18.50;84.30;;;;;;4976264;28;20133;-73
2023/07/12 05:24:13;;;;;;;0.35;0.35;;;18.50;84.40;;;;;;4976463;28;20054;-72
2023/07/12 05:26:39;;;;;;;0.10;0.10;;;18.50;84.20;;;;;;4972098;28;20046;-72
2023/07/12 05:29:05;;;;;;;0.03;0.03;;;18.50;84.20;;;;;;4989161;28;20045;-73
2023/07/12 05:31:31;;;;;;;0.32;0.32;;;18.60;84.10;;;;;;4982266;28;20042;-73
2023/07/12 05:33:57;;;;;;;0.52;0.43;;;18.60;84.30;;;;;;4973567;28;20673;-73
2023/07/12 05:36:22;;;;;;;0.10;0.10;;;18.60;84.00;;;;;;4973243;28;20051;-73
2023/07/12 05:38:48;;;;;;;0.20;0.20;;;18.70;83.90;;;;;;4970649;28;20047;-73
2023/07/12 05:41:14;;;;;;;0.00;0.00;;;18.70;83.80;;;;;;4985277;28;20524;-72
2023/07/12 05:43:40;;;;;;;0.00;0.00;;;18.80;83.80;;;;;;4970608;28;20051;-72
2023/07/12 05:46:06;;;;;;;0.00;0.00;;;18.80;83.60;;;;;;4971300;28;20491;-72
2023/07/12 05:48:32;;;;;;;0.00;0.00;;;18.90;83.60;;;;;;4977498;28;20053;-71
2023/07/12 05:50:59;;;;;;;0.00;0.00;;;19.00;83.60;;;;;;4971417;28;20047;-70
2023/07/12 05:53:25;;;;;;;0.17;0.17;;;19.00;83.60;;;;;;4973887;28;20085;-71
2023/07/12 05:55:55;;;;;;;0.00;0.00;;;19.00;83.30;;;;;;4978776;28;20093;-71
2023/07/12 05:58:22;;;;;;;0.00;0.00;;;18.90;83.30;;;;;;4983827;28;20119;-71
2023/07/12 06:00:47;;;;;;;1.10;0.73;;;18.90;83.90;;;;;;4975821;28;20061;-71
2023/07/12 06:03:13;;;;;;;0.60;0.60;;;18.80;83.70;;;;;;4975729;28;20035;-71
2023/07/12 06:05:44;;;;;;;0.00;0.00;;;18.80;83.40;;;;;;4973849;28;20153;-71
2023/07/12 06:08:10;;;;;;;0.43;0.22;;;18.80;83.30;;;;;;4969874;28;20566;-71
2023/07/12 06:10:36;;;;;;;2.00;1.65;;;18.80;83.70;;;;;;4989228;28;20042;-72
2023/07/12 06:13:01;;;;;;;0.00;0.00;;;18.70;83.90;;;;;;4980169;28;20491;-72
2023/07/12 06:15:27;;;;;;;0.00;0.00;;;18.60;84.00;;;;;;4971227;28;20047;-69
2023/07/12 06:17:53;;;;;;;0.10;0.10;;;18.60;83.80;;;;;;4977653;28;20057;-71
2023/07/12 06:20:19;;;;;;;0.00;0.00;;;18.60;83.90;;;;;;4981134;28;20043;-72
2023/07/12 06:22:45;;;;;;;0.47;0.47;;;18.60;84.20;;;;;;4970339;28;20050;-73
2023/07/12 06:25:10;;;;;;;0.00;0.00;;;18.70;84.00;;;;;;4969228;28;20078;-72
2023/07/12 06:27:36;;;;;;;0.00;0.00;;;18.80;83.90;;;;;;4954356;28;20050;-71
2023/07/12 06:30:02;;;;;;;1.38;1.27;;;18.90;83.60;;;;;;4963200;28;20039;-75
2023/07/12 06:32:28;;;;;;;0.00;0.00;;;19.00;83.20;;;;;;4975765;28;20566;-75
2023/07/12 06:34:53;;;;;;;1.35;1.25;;;19.10;82.70;;;;;;4989362;28;20055;-75
2023/07/12 06:37:19;;;;;;;0.82;0.80;;;19.20;82.40;;;;;;4980414;28;20109;-75
2023/07/12 06:39:44;;;;;;;0.00;0.00;;;19.20;82.00;;;;;;4964988;28;20050;-75
2023/07/12 06:42:10;;;;;;;0.05;0.05;;;19.30;81.70;;;;;;4970109;28;20491;-73
2023/07/12 06:44:36;;;;;;;0.15;0.15;;;19.30;81.50;;;;;;4969173;28;20201;-73
2023/07/12 06:47:01;;;;;;;0.00;0.00;;;19.30;81.40;;;;;;4950534;28;20045;-72
2023/07/12 06:49:27;;;;;;;0.00;0.00;;;19.20;81.30;;;;;;4975524;28;20519;-73
2023/07/12 06:51:52;;;;;;;1.75;0.95;;;19.10;81.30;;;;;;4978262;28;20046;-73
2023/07/12 06:54:19;;;;;;;0.00;0.00;;;19.10;81.40;;;;;;4969471;28;20419;-73
2023/07/12 06:56:46;;;;;;;0.00;0.00;;;19.00;81.80;;;;;;4985326;28;20046;-71
2023/07/12 06:59:12;;;;;;;0.00;0.00;;;19.00;81.60;;;;;;4981065;28;20070;-73
2023/07/12 07:01:37;;;;;;;0.00;0.00;;;19.00;81.60;;;;;;4947257;28;20043;-74
2023/07/12 07:04:03;;;;;;;0.00;0.00;;;19.10;82.00;;;;;;4975352;28;20514;-73
2023/07/12 07:06:30;;;;;;;0.00;0.00;;;19.20;82.10;;;;;;4957615;28;20190;-73
2023/07/12 07:08:56;;;;;;;0.00;0.00;;;19.30;81.40;;;;;;4957038;28;20502;-74
2023/07/12 07:11:22;;;;;;;0.00;0.00;;;19.40;81.20;;;;;;4959185;28;20054;-75
2023/07/12 07:13:50;;;;;;;0.00;0.00;;;19.50;81.40;;;;;;4967963;28;20400;-82
2023/07/12 07:16:16;;;;;;;0.00;0.00;;;19.50;80.90;;;;;;4950416;28;20507;-73
2023/07/12 07:18:42;;;;;;;1.20;1.17;;;19.50;81.30;;;;;;4968215;28;20622;-72
2023/07/12 07:21:07;;;;;;;0.10;0.10;;;19.30;81.50;;;;;;4973746;28;20061;-72
2023/07/12 07:23:33;;;;;;;0.13;0.13;;;19.30;81.70;;;;;;4956588;28;20138;-73
2023/07/12 07:26:09;;;;;;;0.00;0.00;;;19.10;81.90;;;;;;4972545;28;20826;-72
2023/07/12 07:28:35;;;;;;;0.00;0.00;;;19.00;81.70;;;;;;4971696;28;20105;-73
2023/07/12 07:31:02;;;;;;;0.00;0.00;;;19.00;81.00;;;;;;4970415;28;20050;-72
2023/07/12 07:33:28;;;;;;;0.00;0.00;;;19.00;81.50;;;;;;4970041;28;20439;-72
2023/07/12 07:35:55;;;;;;;0.00;0.00;;;19.00;81.90;;;;;;4964874;28;20127;-73
2023/07/12 07:38:27;;;;;;;0.00;0.00;;;19.00;80.80;;;;;;4971325;28;20042;-72
2023/07/12 07:40:54;;;;;;;0.00;0.00;;;19.10;80.10;;;;;;4972331;28;20054;-72
2023/07/12 07:43:20;;;;;;;0.00;0.00;;;19.10;80.20;;;;;;4972082;28;20047;-73
2023/07/12 07:45:47;;;;;;;0.00;0.00;;;19.10;79.60;;;;;;4973757;28;20085;-73
2023/07/12 07:48:12;;;;;;;0.00;0.00;;;19.10;79.80;;;;;;4970868;28;20078;-73
2023/07/12 07:50:41;;;;;;;0.00;0.00;;;19.10;79.20;;;;;;4973840;28;20078;-73
2023/07/12 07:53:07;;;;;;;0.17;0.17;;;19.00;79.70;;;;;;4972233;28;20069;-73
2023/07/12 07:55:32;;;;;;;0.00;0.00;;;18.90;80.30;;;;;;4973126;28;20038;-71
2023/07/12 07:57:58;;;;;;;0.00;0.00;;;18.90;81.60;;;;;;4971608;28;20569;-72
2023/07/12 08:00:24;;;;;;;0.00;0.00;;;18.70;82.90;;;;;;4973401;28;20051;-72
2023/07/12 08:02:50;;;;;;;0.10;0.10;;;18.60;83.20;;;;;;4971464;28;20055;-73
2023/07/12 08:05:16;;;;;;;0.00;0.00;;;18.50;83.80;;;;;;4939424;28;20105;-73
2023/07/12 08:07:46;;;;;;;0.20;0.20;;;18.30;83.80;;;;;;4971153;28;20529;-73
2023/07/12 08:10:15;;;;;;;0.00;0.00;;;18.30;84.70;;;;;;4969774;28;20057;-73
2023/07/12 08:12:41;;;;;;;0.00;0.00;;;18.30;85.00;;;;;;4972103;28;20080;-73
2023/07/12 08:15:08;;;;;;;0.00;0.00;;;18.50;85.50;;;;;;4971488;28;20039;-74
2023/07/12 08:17:33;;;;;;;3.63;1.17;;;18.60;85.50;;;;;;4971949;28;20059;-73
2023/07/12 08:19:59;;;;;;;0.00;0.00;;;18.80;85.20;;;;;;4973495;28;20801;-73
2023/07/12 08:22:25;;;;;;;1.13;1.00;;;18.80;84.90;;;;;;4973230;28;20129;-73
2023/07/12 08:24:51;;;;;;;0.00;0.00;;;18.80;84.50;;;;;;4971581;28;20050;-73
2023/07/12 08:27:17;;;;;;;0.00;0.00;;;18.70;83.70;;;;;;4972777;28;20059;-73
2023/07/12 08:29:44;;;;;;;0.10;0.10;;;18.60;82.80;;;;;;4971226;28;20082;-74
2023/07/12 08:32:10;;;;;;;0.00;0.00;;;18.70;82.90;;;;;;4955089;28;20464;-73
2023/07/12 08:34:37;;;;;;;0.00;0.00;;;18.70;82.70;;;;;;4972795;28;20123;-74
2023/07/12 08:37:02;;;;;;;0.00;0.00;;;18.70;82.30;;;;;;4972029;28;20109;-73
2023/07/12 08:39:28;;;;;;;0.32;0.32;;;18.80;82.20;;;;;;4969539;28;20105;-73
2023/07/12 08:41:54;;;;;;;0.00;0.00;;;18.90;82.50;;;;;;4972276;28;20058;-74
2023/07/12 08:44:22;;;;;;;0.00;0.00;;;19.00;83.00;;;;;;4972247;28;20050;-73
2023/07/12 08:46:57;;;;;;;0.00;0.00;;;19.10;82.30;;;;;;4972021;28;20058;-73
2023/07/12 08:49:24;;;;;;;0.10;0.10;;;19.10;80.90;;;;;;4972606;28;20038;-73
2023/07/12 08:51:54;;;;;;;0.55;0.43;;;19.20;80.90;;;;;;4966671;28;20101;-73
2023/07/12 08:54:27;;;;;;;0.00;0.00;;;19.20;80.70;;;;;;4971223;28;20092;-73
2023/07/12 08:57:07;;;;;;;0.00;0.00;;;19.30;81.00;;;;;;4971874;28;20066;-73
2023/07/12 08:59:33;;;;;;;0.00;0.00;;;19.30;79.90;;;;;;4972259;28;20435;-73
2023/07/12 09:02:01;;;;;;;0.30;0.22;;;19.40;80.00;;;;;;4972187;28;20051;-72
2023/07/12 09:04:31;;;;;;;0.00;0.00;;;19.50;78.50;;;;;;4971229;28;20381;-74
2023/07/12 09:07:02;;;;;;;0.22;0.22;;;19.50;77.50;;;;;;4971487;28;20055;-74
2023/07/12 09:09:32;;;;;;;0.00;0.00;;;19.40;76.60;;;;;;4971902;28;20443;-74
2023/07/12 09:12:00;;;;;;;0.00;0.00;;;19.50;76.60;;;;;;4970586;28;20057;-74
2023/07/12 09:14:26;;;;;;;0.25;0.25;;;19.50;76.70;;;;;;4948826;28;20054;-73
2023/07/12 09:16:57;;;;;;;0.00;0.00;;;19.60;76.80;;;;;;4971937;28;20051;-74
2023/07/12 09:19:25;;;;;;;;;;;19.60;76.70;;;;;;4971863;28;20043;-74
2023/07/12 09:21:56;;;;;;;0.00;0.00;;;19.60;77.30;;;;;;4971026;28;20298;-74
2023/07/12 09:24:26;;;;;;;0.13;0.13;;;19.80;76.70;;;;;;4971990;28;20055;-74
2023/07/12 09:27:02;;;;;;;0.00;0.00;;;20.00;77.30;;;;;;4983674;28;20301;-74
2023/07/12 09:29:30;;;;;;;0.00;0.00;;;20.00;76.40;;;;;;4974074;28;20422;-74
2023/07/12 09:32:00;;;;;;;0.00;0.00;;;20.10;76.40;;;;;;4991321;28;20054;-78
2023/07/12 09:34:37;;;;;;;0.20;0.20;;;20.00;75.40;;;;;;4974979;28;20090;-78
2023/07/12 09:37:03;;;;;;;0.00;0.00;;;19.90;75.90;;;;;;4976641;28;20047;-78
2023/07/12 09:39:30;;;;;;;0.00;0.00;;;19.90;76.10;;;;;;4947865;28;20047;-80
2023/07/12 09:41:58;;;;;;;0.00;0.00;;;19.90;72.60;;;;;;4948244;28;20051;-85
2023/07/12 09:44:24;;;;;;;0.00;0.00;;;20.00;73.60;;;;;;4964407;28;20046;-79
2023/07/12 09:47:34;;;;;;;0.00;0.00;;;20.10;74.70;;;;;;4948536;28;20178;-75
2023/07/12 09:50:07;;;;;;;0.00;0.00;;;20.30;72.60;;;;;;4964734;28;20090;-79
2023/07/12 09:52:44;;;;;;;0.73;0.73;;;20.30;73.90;;;;;;4964329;28;20054;-76
2023/07/12 09:55:18;;;;;;;0.10;0.10;;;20.40;73.30;;;;;;4965813;28;20054;-78
2023/07/12 09:58:13;;;;;;;0.00;0.00;;;20.20;71.30;;;;;;4968440;28;20051;-77
2023/07/12 10:00:52;;;;;;;0.00;0.00;;;20.30;71.80;;;;;;4965810;28;20059;-77
2023/07/12 10:03:27;;;;;;;0.00;0.00;;;20.30;71.40;;;;;;4964275;28;20055;-78
2023/07/12 10:06:25;;;;;;;0.00;0.00;;;20.30;71.10;;;;;;4958734;28;20063;-78
2023/07/12 10:08:57;;;;;;;0.00;0.00;;;20.30;71.90;;;;;;4954231;28;20642;-77
2023/07/12 10:11:35;;;;;;;0.00;0.00;;;20.30;71.70;;;;;;4961569;28;20381;-77
2023/07/12 10:14:08;;;;;;;0.60;0.60;;;20.20;71.70;;;;;;4963563;28;20146;-77
2023/07/12 10:16:42;;;;;;;0.75;0.47;;;20.10;70.10;;;;;;4961720;28;20051;-77
2023/07/12 10:19:19;;;;;;;0.00;0.00;;;20.20;70.70;;;;;;4964143;28;20081;-78
2023/07/12 10:21:46;;;;;;;0.00;0.00;;;20.20;69.60;;;;;;4963955;28;20142;-78
2023/07/12 10:24:18;;;;;;;0.00;0.00;;;20.20;71.10;;;;;;4960919;28;20070;-78
2023/07/12 10:26:44;;;;;;;0.00;0.00;;;20.40;70.30;;;;;;4959561;28;20049;-77
2023/07/12 10:29:31;;;;;;;1.17;1.08;;;20.50;69.90;;;;;;4961083;28;20051;-77
2023/07/12 10:32:01;;;;;;;0.00;0.00;;;20.50;68.50;;;;;;4944189;28;20050;-77
2023/07/12 10:34:39;;;;;;;0.00;0.00;;;20.70;69.90;;;;;;4946162;28;20512;-77
2023/07/12 10:37:26;;;;;;;0.00;0.00;;;20.70;69.70;;;;;;4961386;28;20082;-77
2023/07/12 10:39:52;;;;;;;0.00;0.00;;;20.60;69.20;;;;;;4944024;28;20058;-77
2023/07/12 10:42:53;;;;;;;0.85;0.70;;;20.60;67.70;;;;;;4962244;28;20491;-77
2023/07/12 10:45:30;;;;;;;0.00;0.00;;;20.60;68.60;;;;;;4961915;28;20064;-77
2023/07/12 10:47:58;;;;;;;0.00;0.00;;;20.80;67.60;;;;;;4962160;28;20051;-77
2023/07/12 10:50:32;;;;;;;0.00;0.00;;;20.90;67.50;;;;;;4959359;28;20051;-77
2023/07/12 10:53:25;;;;;;;0.00;0.00;;;20.90;66.80;;;;;;4946605;28;20584;-76
2023/07/12 10:56:17;;;;;;;0.00;0.00;;;20.90;68.60;;;;;;4948463;28;20109;-76
2023/07/12 10:58:59;;;;;;;0.00;0.00;;;20.80;67.70;;;;;;4963780;28;20103;-77
2023/07/12 11:01:43;;;;;;;0.00;0.00;;;21.00;68.30;;;;;;4944933;28;20141;-77
2023/07/12 11:04:36;;;;;;;0.00;0.00;;;21.10;69.00;;;;;;4964560;28;20455;-77
2023/07/12 11:07:07;;;;;;;0.00;0.00;;;21.30;67.40;;;;;;4955660;28;20054;-77
2023/07/12 11:09:42;;;;;;;0.00;0.00;;;21.30;65.80;;;;;;4954495;28;20047;-77
2023/07/12 11:12:09;;;;;;;0.00;0.00;;;21.30;65.50;;;;;;4953648;28;20129;-77
2023/07/12 11:14:37;;;;;;;0.00;0.00;;;21.30;65.70;;;;;;4966708;28;20039;-77
2023/07/12 11:17:06;;;;;;;0.00;0.00;;;21.40;65.90;;;;;;4969540;28;20137;-77
2023/07/12 11:19:40;;;;;;;0.00;0.00;;;21.50;65.30;;;;;;4972691;28;20058;-77
2023/07/12 11:22:17;;;;;;;0.00;0.00;;;21.60;64.30;;;;;;4953285;28;20773;-77
2023/07/12 11:24:56;;;;;;;0.00;0.00;;;21.60;64.60;;;;;;4954369;28;20157;-77
2023/07/12 11:27:36;;;;;;;0.00;0.00;;;21.60;63.30;;;;;;4959843;28;20399;-76
2023/07/12 11:30:28;;;;;;;0.00;0.00;;;21.50;63.00;;;;;;4968818;28;20074;-76
2023/07/12 11:33:17;;;;;;;1.23;0.60;;;21.50;65.10;;;;;;4951986;28;20056;-76
2023/07/12 11:35:51;;;;;;;0.00;0.00;;;21.60;63.80;;;;;;4960874;28;20067;-76
2023/07/12 11:38:24;;;;;;;0.00;0.00;;;21.40;60.90;;;;;;4970071;28;20078;-77
2023/07/12 11:40:53;;;;;;;0.00;0.00;;;21.40;62.50;;;;;;4970160;28;20055;-77
2023/07/12 11:43:37;;;;;;;0.00;0.00;;;21.50;62.70;;;;;;4979199;28;20089;-76
2023/07/12 11:46:12;;;;;;;0.00;0.00;;;21.30;61.60;;;;;;4970363;28;20121;-74
2023/07/12 11:48:42;;;;;;;0.00;0.00;;;21.10;62.10;;;;;;4967453;28;20046;-76
2023/07/12 11:51:18;;;;;;;0.00;0.00;;;21.00;62.20;;;;;;4952167;28;20400;-78
2023/07/12 11:53:57;;;;;;;0.00;0.00;;;21.10;63.70;;;;;;4952859;28;20059;-79
2023/07/12 11:56:24;;;;;;;0.00;0.00;;;21.00;61.30;;;;;;4969762;28;20802;-78
2023/07/12 11:58:50;;;;;;;0.00;0.00;;;21.00;60.30;;;;;;4969255;28;20039;-79
2023/07/12 12:01:18;;;;;;;4.45;1.77;;;21.00;60.30;;;;;;4954312;28;20105;-79
2023/07/12 12:03:46;;;;;;;0.00;0.00;;;20.90;61.00;;;;;;4970384;28;20050;-78
2023/07/12 12:06:13;;;;;;;0.00;0.00;;;21.10;61.10;;;;;;4972057;28;20545;-77
2023/07/12 12:08:49;;;;;;;0.00;0.00;;;21.10;61.60;;;;;;4973724;28;20051;-79
2023/07/12 12:11:15;;;;;;;1.17;1.08;;;21.20;60.30;;;;;;4973944;28;20050;-79
2023/07/12 12:13:48;;;;;;;0.00;0.00;;;21.20;62.10;;;;;;4973110;28;20427;-75
2023/07/12 12:16:30;;;;;;;0.00;0.00;;;21.10;62.30;;;;;;4969066;28;20043;-75
2023/07/12 12:19:07;;;;;;;0.00;0.00;;;21.20;62.00;;;;;;4969310;28;20054;-75
2023/07/12 12:21:33;;;;;;;0.00;0.00;;;21.40;62.10;;;;;;4962527;28;20065;-75
2023/07/12 12:24:15;;;;;;;0.00;0.00;;;21.40;61.80;;;;;;4961571;28;20055;-75
2023/07/12 12:26:42;;;;;;;0.00;0.00;;;21.50;61.40;;;;;;4955361;28;20381;-76
2023/07/12 12:29:16;;;;;;;0.05;0.05;;;21.60;60.40;;;;;;4971516;28;20137;-76
2023/07/12 12:32:04;;;;;;;0.00;0.00;;;21.60;59.40;;;;;;4971084;28;20042;-72
2023/07/12 12:34:43;;;;;;;0.00;0.00;;;21.70;58.70;;;;;;4971602;28;20060;-72
2023/07/12 12:37:11;;;;;;;0.00;0.00;;;21.70;56.50;;;;;;4970214;28;20790;-71
2023/07/12 12:39:37;;;;;;;0.00;0.00;;;21.80;57.40;;;;;;4970166;28;20097;-72
2023/07/12 12:42:17;;;;;;;0.00;0.00;;;21.90;57.30;;;;;;4965467;28;20054;-72
2023/07/12 12:44:43;;;;;;;0.20;0.20;;;21.80;56.00;;;;;;4970157;28;20130;-73
2023/07/12 12:47:17;;;;;;;0.20;0.20;;;21.80;58.10;;;;;;4963386;28;20116;-73
2023/07/12 12:49:43;;;;;;;0.57;0.57;;;21.90;56.10;;;;;;4957193;28;20046;-73
2023/07/12 12:52:26;;;;;;;0.00;0.00;;;21.90;57.10;;;;;;4970495;28;20050;-74
2023/07/12 12:54:52;;;;;;;0.00;0.00;;;21.80;54.80;;;;;;4969496;28;20042;-74
2023/07/12 12:57:19;;;;;;;0.00;0.00;;;21.80;54.40;;;;;;4965175;28;20050;-74
2023/07/12 12:59:45;;;;;;;0.00;0.00;;;21.80;54.70;;;;;;4970343;28;20051;-74